sensor_id;sensor_type;location;lat;lon;timestamp;P1;durP1;ratioP1;P2;durP2;ratioP2
33593;SDS011;19920;52.242;20.940;2022-07-12T00:02:07;2.28;;;1.40;;
33593;SDS011;19920;52.242;20.940;2022-07-12T00:04:32;3.17;;;1.70;;
33593;SDS011;19920;52.242;20.940;2022-07-12T00:06:58;5.38;;;1.40;;
33593;SDS011;19920;52.242;20.940;2022-07-12T00:09:24;2.95;;;1.58;;
33593;SDS011;19920;52.242;20.940;2022-07-12T00:11:50;2.00;;;1.70;;
33593;SDS011;19920;52.242;20.940;2022-07-12T00:14:15;3.13;;;1.60;;
33593;SDS011;19920;52.242;20.940;2022-07-12T00:16:41;5.22;;;1.48;;
33593;SDS011;19920;52.242;20.940;2022-07-12T00:19:07;3.70;;;1.40;;
33593;SDS011;19920;52.242;20.940;2022-07-12T00:21:33;1.60;;;1.50;;
33593;SDS011;19920;52.242;20.940;2022-07-12T00:23:59;2.72;;;1.60;;
33593;SDS011;19920;52.242;20.940;2022-07-12T00:26:25;3.20;;;1.63;;
33593;SDS011;19920;52.242;20.940;2022-07-12T00:28:51;3.75;;;1.58;;
33593;SDS011;19920;52.242;20.940;2022-07-12T00:31:16;3.50;;;1.73;;
33593;SDS011;19920;52.242;20.940;2022-07-12T00:33:42;2.45;;;1.80;;
33593;SDS011;19920;52.242;20.940;2022-07-12T00:36:08;3.17;;;1.80;;
33593;SDS011;19920;52.242;20.940;2022-07-12T00:38:33;3.97;;;1.88;;
33593;SDS011;19920;52.242;20.940;2022-07-12T00:40:59;2.38;;;1.60;;
33593;SDS011;19920;52.242;20.940;2022-07-12T00:43:25;3.00;;;1.50;;
33593;SDS011;19920;52.242;20.940;2022-07-12T00:45:51;3.13;;;1.90;;
33593;SDS011;19920;52.242;20.940;2022-07-12T00:48:17;5.25;;;1.98;;
33593;SDS011;19920;52.242;20.940;2022-07-12T00:50:44;2.92;;;1.75;;
33593;SDS011;19920;52.242;20.940;2022-07-12T00:53:13;2.47;;;1.67;;
33593;SDS011;19920;52.242;20.940;2022-07-12T00:55:39;4.15;;;1.75;;
33593;SDS011;19920;52.242;20.940;2022-07-12T00:58:05;4.78;;;1.98;;
33593;SDS011;19920;52.242;20.940;2022-07-12T01:00:31;3.97;;;2.30;;
33593;SDS011;19920;52.242;20.940;2022-07-12T01:02:57;4.00;;;1.90;;
33593;SDS011;19920;52.242;20.940;2022-07-12T01:05:26;3.97;;;2.10;;
33593;SDS011;19920;52.242;20.940;2022-07-12T01:07:53;2.75;;;1.90;;
33593;SDS011;19920;52.242;20.940;2022-07-12T01:10:19;5.05;;;2.40;;
33593;SDS011;19920;52.242;20.940;2022-07-12T01:12:45;5.70;;;2.33;;
33593;SDS011;19920;52.242;20.940;2022-07-12T01:15:11;2.70;;;1.80;;
33593;SDS011;19920;52.242;20.940;2022-07-12T01:17:38;2.50;;;2.10;;
33593;SDS011;19920;52.242;20.940;2022-07-12T01:20:04;4.15;;;2.20;;
33593;SDS011;19920;52.242;20.940;2022-07-12T01:22:35;4.65;;;1.95;;
33593;SDS011;19920;52.242;20.940;2022-07-12T01:25:02;7.20;;;2.35;;
33593;SDS011;19920;52.242;20.940;2022-07-12T01:27:30;6.10;;;2.60;;
33593;SDS011;19920;52.242;20.940;2022-07-12T01:29:56;6.47;;;2.33;;
33593;SDS011;19920;52.242;20.940;2022-07-12T01:32:22;3.63;;;2.70;;
33593;SDS011;19920;52.242;20.940;2022-07-12T01:37:23;3.38;;;2.58;;
33593;SDS011;19920;52.242;20.940;2022-07-12T01:39:51;4.45;;;2.45;;
33593;SDS011;19920;52.242;20.940;2022-07-12T01:42:28;3.88;;;2.40;;
33593;SDS011;19920;52.242;20.940;2022-07-12T01:44:55;5.50;;;2.67;;
33593;SDS011;19920;52.242;20.940;2022-07-12T01:47:22;3.65;;;2.85;;
33593;SDS011;19920;52.242;20.940;2022-07-12T01:49:52;8.52;;;3.28;;
33593;SDS011;19920;52.242;20.940;2022-07-12T01:52:17;4.35;;;2.42;;
33593;SDS011;19920;52.242;20.940;2022-07-12T01:54:45;4.25;;;2.92;;
33593;SDS011;19920;52.242;20.940;2022-07-12T01:57:11;4.25;;;2.60;;
33593;SDS011;19920;52.242;20.940;2022-07-12T01:59:39;4.38;;;2.92;;
33593;SDS011;19920;52.242;20.940;2022-07-12T02:02:05;4.45;;;2.85;;
33593;SDS011;19920;52.242;20.940;2022-07-12T02:04:32;5.15;;;2.63;;
33593;SDS011;19920;52.242;20.940;2022-07-12T02:06:58;4.32;;;2.58;;
33593;SDS011;19920;52.242;20.940;2022-07-12T02:09:24;8.18;;;3.00;;
33593;SDS011;19920;52.242;20.940;2022-07-12T02:11:50;5.43;;;3.00;;
33593;SDS011;19920;52.242;20.940;2022-07-12T02:14:16;6.20;;;2.83;;
33593;SDS011;19920;52.242;20.940;2022-07-12T02:16:42;4.68;;;2.80;;
33593;SDS011;19920;52.242;20.940;2022-07-12T02:19:08;6.30;;;3.20;;
33593;SDS011;19920;52.242;20.940;2022-07-12T02:21:37;5.05;;;2.55;;
33593;SDS011;19920;52.242;20.940;2022-07-12T02:24:04;5.63;;;3.03;;
33593;SDS011;19920;52.242;20.940;2022-07-12T02:26:31;3.58;;;2.83;;
33593;SDS011;19920;52.242;20.940;2022-07-12T02:28:58;5.10;;;3.00;;
33593;SDS011;19920;52.242;20.940;2022-07-12T02:31:24;7.18;;;3.03;;
33593;SDS011;19920;52.242;20.940;2022-07-12T02:33:51;3.95;;;3.10;;
33593;SDS011;19920;52.242;20.940;2022-07-12T02:36:16;8.70;;;3.28;;
33593;SDS011;19920;52.242;20.940;2022-07-12T02:38:42;5.57;;;3.53;;
33593;SDS011;19920;52.242;20.940;2022-07-12T02:41:08;5.68;;;3.00;;
33593;SDS011;19920;52.242;20.940;2022-07-12T02:43:34;3.40;;;3.00;;
33593;SDS011;19920;52.242;20.940;2022-07-12T02:46:03;3.30;;;3.00;;
33593;SDS011;19920;52.242;20.940;2022-07-12T02:48:30;6.35;;;3.08;;
33593;SDS011;19920;52.242;20.940;2022-07-12T02:50:56;8.18;;;2.78;;
33593;SDS011;19920;52.242;20.940;2022-07-12T02:53:22;6.68;;;2.95;;
33593;SDS011;19920;52.242;20.940;2022-07-12T02:55:48;3.50;;;2.70;;
33593;SDS011;19920;52.242;20.940;2022-07-12T02:58:14;5.28;;;3.10;;
33593;SDS011;19920;52.242;20.940;2022-07-12T03:00:40;5.10;;;2.85;;
33593;SDS011;19920;52.242;20.940;2022-07-12T03:03:07;6.30;;;2.70;;
33593;SDS011;19920;52.242;20.940;2022-07-12T03:05:36;4.78;;;2.70;;
33593;SDS011;19920;52.242;20.940;2022-07-12T03:08:02;5.57;;;2.75;;
33593;SDS011;19920;52.242;20.940;2022-07-12T03:10:28;5.90;;;2.63;;
33593;SDS011;19920;52.242;20.940;2022-07-12T03:12:54;9.55;;;2.80;;
33593;SDS011;19920;52.242;20.940;2022-07-12T03:15:20;2.72;;;2.50;;
33593;SDS011;19920;52.242;20.940;2022-07-12T03:17:45;6.45;;;2.58;;
33593;SDS011;19920;52.242;20.940;2022-07-12T03:20:11;6.60;;;2.85;;
33593;SDS011;19920;52.242;20.940;2022-07-12T03:22:39;4.90;;;2.35;;
33593;SDS011;19920;52.242;20.940;2022-07-12T03:25:06;3.75;;;2.90;;
33593;SDS011;19920;52.242;20.940;2022-07-12T03:27:33;8.32;;;2.88;;
33593;SDS011;19920;52.242;20.940;2022-07-12T03:29:59;5.55;;;3.15;;
33593;SDS011;19920;52.242;20.940;2022-07-12T03:32:25;7.30;;;2.67;;
33593;SDS011;19920;52.242;20.940;2022-07-12T03:34:51;7.45;;;2.60;;
33593;SDS011;19920;52.242;20.940;2022-07-12T03:37:17;4.35;;;2.42;;
33593;SDS011;19920;52.242;20.940;2022-07-12T03:39:42;5.03;;;3.17;;
33593;SDS011;19920;52.242;20.940;2022-07-12T03:42:08;5.25;;;2.85;;
33593;SDS011;19920;52.242;20.940;2022-07-12T03:44:36;5.80;;;2.80;;
33593;SDS011;19920;52.242;20.940;2022-07-12T03:47:01;4.55;;;2.97;;
33593;SDS011;19920;52.242;20.940;2022-07-12T03:49:27;7.25;;;3.13;;
33593;SDS011;19920;52.242;20.940;2022-07-12T03:51:53;5.45;;;3.22;;
33593;SDS011;19920;52.242;20.940;2022-07-12T03:54:18;5.47;;;3.00;;
33593;SDS011;19920;52.242;20.940;2022-07-12T03:56:44;3.60;;;3.00;;
33593;SDS011;19920;52.242;20.940;2022-07-12T03:59:28;5.95;;;2.78;;
33593;SDS011;19920;52.242;20.940;2022-07-12T04:01:54;6.88;;;3.00;;
33593;SDS011;19920;52.242;20.940;2022-07-12T04:04:20;4.03;;;3.00;;
33593;SDS011;19920;52.242;20.940;2022-07-12T04:06:45;6.05;;;2.90;;
33593;SDS011;19920;52.242;20.940;2022-07-12T04:09:11;4.15;;;3.00;;
33593;SDS011;19920;52.242;20.940;2022-07-12T04:11:37;3.75;;;3.08;;
33593;SDS011;19920;52.242;20.940;2022-07-12T04:14:03;4.88;;;3.53;;
33593;SDS011;19920;52.242;20.940;2022-07-12T04:16:29;4.60;;;2.85;;
33593;SDS011;19920;52.242;20.940;2022-07-12T04:18:55;6.65;;;3.20;;
33593;SDS011;19920;52.242;20.940;2022-07-12T04:21:21;7.90;;;2.78;;
33593;SDS011;19920;52.242;20.940;2022-07-12T04:23:47;4.50;;;2.78;;
33593;SDS011;19920;52.242;20.940;2022-07-12T04:26:13;6.47;;;2.85;;
33593;SDS011;19920;52.242;20.940;2022-07-12T04:28:39;5.28;;;3.17;;
33593;SDS011;19920;52.242;20.940;2022-07-12T04:31:04;5.13;;;2.63;;
33593;SDS011;19920;52.242;20.940;2022-07-12T04:33:31;7.55;;;3.10;;
33593;SDS011;19920;52.242;20.940;2022-07-12T04:35:57;5.80;;;2.92;;
33593;SDS011;19920;52.242;20.940;2022-07-12T04:38:23;4.15;;;2.70;;
33593;SDS011;19920;52.242;20.940;2022-07-12T04:40:49;9.07;;;3.30;;
33593;SDS011;19920;52.242;20.940;2022-07-12T04:43:14;5.30;;;3.42;;
33593;SDS011;19920;52.242;20.940;2022-07-12T04:45:40;6.75;;;3.15;;
33593;SDS011;19920;52.242;20.940;2022-07-12T04:48:09;3.85;;;3.03;;
33593;SDS011;19920;52.242;20.940;2022-07-12T04:50:35;5.25;;;2.85;;
33593;SDS011;19920;52.242;20.940;2022-07-12T04:53:01;7.50;;;3.67;;
33593;SDS011;19920;52.242;20.940;2022-07-12T04:55:26;8.40;;;3.00;;
33593;SDS011;19920;52.242;20.940;2022-07-12T04:57:52;7.32;;;3.35;;
33593;SDS011;19920;52.242;20.940;2022-07-12T05:00:18;12.38;;;3.58;;
33593;SDS011;19920;52.242;20.940;2022-07-12T05:02:43;6.18;;;3.10;;
33593;SDS011;19920;52.242;20.940;2022-07-12T05:05:09;8.77;;;3.13;;
33593;SDS011;19920;52.242;20.940;2022-07-12T05:07:35;9.95;;;3.60;;
33593;SDS011;19920;52.242;20.940;2022-07-12T05:10:00;6.35;;;3.38;;
33593;SDS011;19920;52.242;20.940;2022-07-12T05:12:26;5.28;;;2.95;;
33593;SDS011;19920;52.242;20.940;2022-07-12T05:14:51;6.55;;;2.90;;
33593;SDS011;19920;52.242;20.940;2022-07-12T05:17:17;8.13;;;2.92;;
33593;SDS011;19920;52.242;20.940;2022-07-12T05:19:43;6.07;;;3.00;;
33593;SDS011;19920;52.242;20.940;2022-07-12T05:22:09;4.43;;;3.15;;
33593;SDS011;19920;52.242;20.940;2022-07-12T05:24:34;4.10;;;3.17;;
33593;SDS011;19920;52.242;20.940;2022-07-12T05:27:00;4.53;;;3.10;;
33593;SDS011;19920;52.242;20.940;2022-07-12T05:29:26;5.30;;;3.10;;
33593;SDS011;19920;52.242;20.940;2022-07-12T05:31:54;5.55;;;3.22;;
33593;SDS011;19920;52.242;20.940;2022-07-12T05:34:21;5.90;;;2.83;;
33593;SDS011;19920;52.242;20.940;2022-07-12T05:36:47;3.40;;;2.90;;
33593;SDS011;19920;52.242;20.940;2022-07-12T05:39:12;3.95;;;2.85;;
33593;SDS011;19920;52.242;20.940;2022-07-12T05:41:38;5.30;;;2.70;;
33593;SDS011;19920;52.242;20.940;2022-07-12T05:44:03;7.22;;;2.83;;
33593;SDS011;19920;52.242;20.940;2022-07-12T05:46:30;2.63;;;2.33;;
33593;SDS011;19920;52.242;20.940;2022-07-12T05:48:55;5.43;;;2.70;;
33593;SDS011;19920;52.242;20.940;2022-07-12T05:51:21;4.93;;;2.30;;
33593;SDS011;19920;52.242;20.940;2022-07-12T05:54:06;2.30;;;2.10;;
33593;SDS011;19920;52.242;20.940;2022-07-12T05:56:31;5.50;;;2.10;;
33593;SDS011;19920;52.242;20.940;2022-07-12T05:58:57;5.47;;;2.30;;
33593;SDS011;19920;52.242;20.940;2022-07-12T06:01:23;5.45;;;1.95;;
33593;SDS011;19920;52.242;20.940;2022-07-12T06:03:48;4.63;;;2.25;;
33593;SDS011;19920;52.242;20.940;2022-07-12T06:06:14;3.47;;;1.67;;
33593;SDS011;19920;52.242;20.940;2022-07-12T06:08:40;4.05;;;1.90;;
33593;SDS011;19920;52.242;20.940;2022-07-12T06:11:06;3.95;;;2.10;;
33593;SDS011;19920;52.242;20.940;2022-07-12T06:13:32;7.75;;;1.77;;
33593;SDS011;19920;52.242;20.940;2022-07-12T06:15:58;4.90;;;1.67;;
33593;SDS011;19920;52.242;20.940;2022-07-12T06:18:24;5.97;;;1.60;;
33593;SDS011;19920;52.242;20.940;2022-07-12T06:20:50;3.17;;;1.77;;
33593;SDS011;19920;52.242;20.940;2022-07-12T06:23:17;4.88;;;1.85;;
33593;SDS011;19920;52.242;20.940;2022-07-12T06:25:43;6.18;;;1.80;;
33593;SDS011;19920;52.242;20.940;2022-07-12T06:28:10;3.78;;;1.35;;
33593;SDS011;19920;52.242;20.940;2022-07-12T06:30:36;3.88;;;1.60;;
33593;SDS011;19920;52.242;20.940;2022-07-12T06:33:01;3.45;;;1.60;;
33593;SDS011;19920;52.242;20.940;2022-07-12T06:35:27;4.82;;;1.58;;
33593;SDS011;19920;52.242;20.940;2022-07-12T06:37:53;5.35;;;1.70;;
33593;SDS011;19920;52.242;20.940;2022-07-12T06:40:19;4.45;;;1.40;;
33593;SDS011;19920;52.242;20.940;2022-07-12T06:42:44;3.35;;;1.50;;
33593;SDS011;19920;52.242;20.940;2022-07-12T06:45:10;6.93;;;1.27;;
33593;SDS011;19920;52.242;20.940;2022-07-12T06:47:36;3.63;;;1.35;;
33593;SDS011;19920;52.242;20.940;2022-07-12T06:50:02;5.15;;;1.35;;
33593;SDS011;19920;52.242;20.940;2022-07-12T06:52:28;3.90;;;1.10;;
33593;SDS011;19920;52.242;20.940;2022-07-12T06:54:55;4.28;;;1.20;;
33593;SDS011;19920;52.242;20.940;2022-07-12T06:57:21;6.03;;;1.58;;
33593;SDS011;19920;52.242;20.940;2022-07-12T06:59:47;4.80;;;1.65;;
33593;SDS011;19920;52.242;20.940;2022-07-12T07:02:13;3.55;;;1.15;;
33593;SDS011;19920;52.242;20.940;2022-07-12T07:04:39;3.05;;;1.38;;
33593;SDS011;19920;52.242;20.940;2022-07-12T07:07:05;4.82;;;1.00;;
33593;SDS011;19920;52.242;20.940;2022-07-12T07:09:30;2.17;;;1.10;;
33593;SDS011;19920;52.242;20.940;2022-07-12T07:11:56;6.53;;;1.50;;
33593;SDS011;19920;52.242;20.940;2022-07-12T07:14:21;6.75;;;1.05;;
33593;SDS011;19920;52.242;20.940;2022-07-12T07:16:47;1.20;;;0.93;;
33593;SDS011;19920;52.242;20.940;2022-07-12T07:19:13;2.40;;;1.10;;
33593;SDS011;19920;52.242;20.940;2022-07-12T07:21:38;1.95;;;1.00;;
33593;SDS011;19920;52.242;20.940;2022-07-12T07:24:04;2.25;;;1.02;;
33593;SDS011;19920;52.242;20.940;2022-07-12T07:26:30;2.95;;;1.10;;
33593;SDS011;19920;52.242;20.940;2022-07-12T07:28:57;3.97;;;0.95;;
33593;SDS011;19920;52.242;20.940;2022-07-12T07:31:42;1.73;;;0.85;;
33593;SDS011;19920;52.242;20.940;2022-07-12T07:34:07;1.75;;;0.80;;
33593;SDS011;19920;52.242;20.940;2022-07-12T07:36:33;3.80;;;1.02;;
33593;SDS011;19920;52.242;20.940;2022-07-12T07:38:59;4.38;;;0.90;;
33593;SDS011;19920;52.242;20.940;2022-07-12T07:41:25;2.00;;;0.90;;
33593;SDS011;19920;52.242;20.940;2022-07-12T07:43:51;1.42;;;1.00;;
33593;SDS011;19920;52.242;20.940;2022-07-12T07:46:17;2.33;;;0.90;;
33593;SDS011;19920;52.242;20.940;2022-07-12T07:48:42;5.80;;;0.95;;
33593;SDS011;19920;52.242;20.940;2022-07-12T07:51:08;2.47;;;0.90;;
33593;SDS011;19920;52.242;20.940;2022-07-12T07:53:33;1.63;;;1.00;;
33593;SDS011;19920;52.242;20.940;2022-07-12T07:55:59;3.17;;;1.05;;
33593;SDS011;19920;52.242;20.940;2022-07-12T07:58:25;3.88;;;0.90;;
33593;SDS011;19920;52.242;20.940;2022-07-12T08:00:51;1.50;;;0.80;;
33593;SDS011;19920;52.242;20.940;2022-07-12T08:03:21;3.22;;;0.80;;
33593;SDS011;19920;52.242;20.940;2022-07-12T08:05:47;0.90;;;0.80;;
33593;SDS011;19920;52.242;20.940;2022-07-12T08:08:13;2.05;;;1.00;;
33593;SDS011;19920;52.242;20.940;2022-07-12T08:10:39;2.83;;;0.90;;
33593;SDS011;19920;52.242;20.940;2022-07-12T08:13:05;3.05;;;1.20;;
33593;SDS011;19920;52.242;20.940;2022-07-12T08:15:31;2.25;;;1.00;;
33593;SDS011;19920;52.242;20.940;2022-07-12T08:17:57;1.15;;;0.90;;
33593;SDS011;19920;52.242;20.940;2022-07-12T08:20:23;3.35;;;0.90;;
33593;SDS011;19920;52.242;20.940;2022-07-12T08:22:49;3.20;;;1.02;;
33593;SDS011;19920;52.242;20.940;2022-07-12T08:25:15;3.13;;;1.00;;
33593;SDS011;19920;52.242;20.940;2022-07-12T08:27:41;3.13;;;1.25;;
33593;SDS011;19920;52.242;20.940;2022-07-12T08:30:07;3.17;;;1.20;;
33593;SDS011;19920;52.242;20.940;2022-07-12T08:32:33;2.17;;;1.20;;
33593;SDS011;19920;52.242;20.940;2022-07-12T08:34:59;1.50;;;0.90;;
33593;SDS011;19920;52.242;20.940;2022-07-12T08:37:24;4.82;;;0.90;;
33593;SDS011;19920;52.242;20.940;2022-07-12T08:39:50;2.42;;;0.90;;
33593;SDS011;19920;52.242;20.940;2022-07-12T08:42:17;1.48;;;1.00;;
33593;SDS011;19920;52.242;20.940;2022-07-12T08:47:21;3.35;;;0.95;;
33593;SDS011;19920;52.242;20.940;2022-07-12T08:50:48;2.45;;;0.90;;
33593;SDS011;19920;52.242;20.940;2022-07-12T08:52:47;3.95;;;1.00;;
33593;SDS011;19920;52.242;20.940;2022-07-12T08:57:51;4.13;;;1.13;;
33593;SDS011;19920;52.242;20.940;2022-07-12T09:00:20;4.35;;;1.10;;
33593;SDS011;19920;52.242;20.940;2022-07-12T09:05:23;4.68;;;1.42;;
33593;SDS011;19920;52.242;20.940;2022-07-12T09:07:51;4.40;;;0.90;;
33593;SDS011;19920;52.242;20.940;2022-07-12T09:10:26;1.33;;;0.82;;
33593;SDS011;19920;52.242;20.940;2022-07-12T09:12:51;1.30;;;1.13;;
33593;SDS011;19920;52.242;20.940;2022-07-12T09:15:21;1.85;;;0.90;;
33593;SDS011;19920;52.242;20.940;2022-07-12T09:17:55;2.65;;;0.90;;
33593;SDS011;19920;52.242;20.940;2022-07-12T09:20:30;4.10;;;0.80;;
33593;SDS011;19920;52.242;20.940;2022-07-12T09:22:58;4.25;;;0.95;;
33593;SDS011;19920;52.242;20.940;2022-07-12T09:25:26;4.63;;;1.10;;
33593;SDS011;19920;52.242;20.940;2022-07-12T09:27:56;2.75;;;0.93;;
33593;SDS011;19920;52.242;20.940;2022-07-12T09:30:24;3.55;;;1.00;;
33593;SDS011;19920;52.242;20.940;2022-07-12T09:35:35;3.63;;;0.80;;
33593;SDS011;19920;52.242;20.940;2022-07-12T09:41:03;2.15;;;1.20;;
33593;SDS011;19920;52.242;20.940;2022-07-12T09:43:29;2.20;;;0.90;;
33593;SDS011;19920;52.242;20.940;2022-07-12T09:45:56;3.20;;;1.00;;
33593;SDS011;19920;52.242;20.940;2022-07-12T09:48:22;4.35;;;0.90;;
33593;SDS011;19920;52.242;20.940;2022-07-12T09:50:49;2.08;;;0.73;;
33593;SDS011;19920;52.242;20.940;2022-07-12T09:53:20;1.75;;;0.70;;
33593;SDS011;19920;52.242;20.940;2022-07-12T09:55:48;3.30;;;0.90;;
33593;SDS011;19920;52.242;20.940;2022-07-12T09:58:16;1.08;;;0.82;;
33593;SDS011;19920;52.242;20.940;2022-07-12T10:00:52;1.20;;;0.90;;
33593;SDS011;19920;52.242;20.940;2022-07-12T10:03:22;5.88;;;1.30;;
33593;SDS011;19920;52.242;20.940;2022-07-12T10:05:52;2.72;;;0.95;;
33593;SDS011;19920;52.242;20.940;2022-07-12T10:08:19;3.22;;;1.00;;
33593;SDS011;19920;52.242;20.940;2022-07-12T10:10:45;2.40;;;0.85;;
33593;SDS011;19920;52.242;20.940;2022-07-12T10:13:12;2.97;;;1.00;;
33593;SDS011;19920;52.242;20.940;2022-07-12T10:15:39;3.25;;;0.70;;
33593;SDS011;19920;52.242;20.940;2022-07-12T10:18:08;1.92;;;0.80;;
33593;SDS011;19920;52.242;20.940;2022-07-12T10:20:43;3.55;;;1.13;;
33593;SDS011;19920;52.242;20.940;2022-07-12T10:26:46;3.42;;;0.90;;
33593;SDS011;19920;52.242;20.940;2022-07-12T10:29:03;1.45;;;1.00;;
33593;SDS011;19920;52.242;20.940;2022-07-12T10:31:34;1.65;;;0.80;;
33593;SDS011;19920;52.242;20.940;2022-07-12T10:39:23;4.90;;;0.88;;
33593;SDS011;19920;52.242;20.940;2022-07-12T10:47:00;1.55;;;0.80;;
33593;SDS011;19920;52.242;20.940;2022-07-12T10:49:26;4.15;;;0.93;;
33593;SDS011;19920;52.242;20.940;2022-07-12T10:54:35;2.70;;;1.05;;
33593;SDS011;19920;52.242;20.940;2022-07-12T10:57:04;1.10;;;0.70;;
33593;SDS011;19920;52.242;20.940;2022-07-12T10:59:32;2.25;;;0.70;;
33593;SDS011;19920;52.242;20.940;2022-07-12T11:01:59;0.68;;;0.65;;
33593;SDS011;19920;52.242;20.940;2022-07-12T11:04:25;1.75;;;0.70;;
33593;SDS011;19920;52.242;20.940;2022-07-12T11:06:55;3.10;;;0.95;;
33593;SDS011;19920;52.242;20.940;2022-07-12T11:09:23;3.38;;;0.90;;
33593;SDS011;19920;52.242;20.940;2022-07-12T11:11:50;3.10;;;0.80;;
33593;SDS011;19920;52.242;20.940;2022-07-12T11:14:24;2.40;;;0.80;;
33593;SDS011;19920;52.242;20.940;2022-07-12T11:16:51;2.10;;;0.88;;
33593;SDS011;19920;52.242;20.940;2022-07-12T11:19:24;1.83;;;0.73;;
33593;SDS011;19920;52.242;20.940;2022-07-12T11:21:54;6.32;;;0.88;;
33593;SDS011;19920;52.242;20.940;2022-07-12T11:27:01;3.15;;;0.70;;
33593;SDS011;19920;52.242;20.940;2022-07-12T11:29:27;4.93;;;0.65;;
33593;SDS011;19920;52.242;20.940;2022-07-12T11:31:59;2.03;;;0.57;;
33593;SDS011;19920;52.242;20.940;2022-07-12T11:34:26;2.47;;;0.80;;
33593;SDS011;19920;52.242;20.940;2022-07-12T11:36:58;2.75;;;0.70;;
33593;SDS011;19920;52.242;20.940;2022-07-12T11:39:35;2.13;;;0.75;;
33593;SDS011;19920;52.242;20.940;2022-07-12T11:42:02;2.47;;;0.70;;
33593;SDS011;19920;52.242;20.940;2022-07-12T11:47:11;3.03;;;0.70;;
33593;SDS011;19920;52.242;20.940;2022-07-12T11:49:44;3.72;;;0.68;;
33593;SDS011;19920;52.242;20.940;2022-07-12T11:52:28;3.63;;;0.73;;
33593;SDS011;19920;52.242;20.940;2022-07-12T11:54:54;0.93;;;0.80;;
33593;SDS011;19920;52.242;20.940;2022-07-12T11:57:21;2.08;;;0.70;;
33593;SDS011;19920;52.242;20.940;2022-07-12T11:59:48;2.65;;;0.60;;
33593;SDS011;19920;52.242;20.940;2022-07-12T12:02:14;4.82;;;0.90;;
33593;SDS011;19920;52.242;20.940;2022-07-12T12:04:48;3.35;;;1.17;;
33593;SDS011;19920;52.242;20.940;2022-07-12T12:07:19;3.05;;;0.57;;
33593;SDS011;19920;52.242;20.940;2022-07-12T12:15:17;2.13;;;0.70;;
33593;SDS011;19920;52.242;20.940;2022-07-12T12:18:04;3.50;;;0.85;;
33593;SDS011;19920;52.242;20.940;2022-07-12T12:20:35;3.58;;;0.70;;
33593;SDS011;19920;52.242;20.940;2022-07-12T12:23:03;1.33;;;0.75;;
33593;SDS011;19920;52.242;20.940;2022-07-12T12:25:30;4.70;;;0.70;;
33593;SDS011;19920;52.242;20.940;2022-07-12T12:30:25;3.10;;;0.80;;
33593;SDS011;19920;52.242;20.940;2022-07-12T12:32:55;1.20;;;0.70;;
33593;SDS011;19920;52.242;20.940;2022-07-12T12:35:24;1.83;;;0.68;;
33593;SDS011;19920;52.242;20.940;2022-07-12T12:37:59;2.92;;;0.70;;
33593;SDS011;19920;52.242;20.940;2022-07-12T12:40:38;1.15;;;0.60;;
33593;SDS011;19920;52.242;20.940;2022-07-12T12:43:08;1.38;;;0.75;;
33593;SDS011;19920;52.242;20.940;2022-07-12T12:45:36;3.35;;;0.90;;
33593;SDS011;19920;52.242;20.940;2022-07-12T12:48:20;6.07;;;1.50;;
33593;SDS011;19920;52.242;20.940;2022-07-12T12:50:47;2.00;;;1.35;;
33593;SDS011;19920;52.242;20.940;2022-07-12T12:53:18;1.25;;;0.75;;
33593;SDS011;19920;52.242;20.940;2022-07-12T12:55:47;1.35;;;0.63;;
33593;SDS011;19920;52.242;20.940;2022-07-12T12:58:14;1.23;;;0.70;;
33593;SDS011;19920;52.242;20.940;2022-07-12T13:00:42;3.38;;;0.80;;
33593;SDS011;19920;52.242;20.940;2022-07-12T13:03:10;5.30;;;1.20;;
33593;SDS011;19920;52.242;20.940;2022-07-12T13:05:37;2.88;;;1.33;;
33593;SDS011;19920;52.242;20.940;2022-07-12T13:08:04;3.75;;;0.82;;
33593;SDS011;19920;52.242;20.940;2022-07-12T13:10:32;1.40;;;0.70;;
33593;SDS011;19920;52.242;20.940;2022-07-12T13:12:58;1.30;;;0.52;;
33593;SDS011;19920;52.242;20.940;2022-07-12T13:15:25;1.80;;;0.68;;
33593;SDS011;19920;52.242;20.940;2022-07-12T13:17:52;3.28;;;0.80;;
33593;SDS011;19920;52.242;20.940;2022-07-12T13:20:18;2.50;;;0.77;;
33593;SDS011;19920;52.242;20.940;2022-07-12T13:22:44;2.15;;;0.70;;
33593;SDS011;19920;52.242;20.940;2022-07-12T13:25:11;2.30;;;0.63;;
33593;SDS011;19920;52.242;20.940;2022-07-12T13:27:39;3.60;;;0.88;;
33593;SDS011;19920;52.242;20.940;2022-07-12T13:30:06;1.88;;;1.10;;
33593;SDS011;19920;52.242;20.940;2022-07-12T13:32:33;2.78;;;0.80;;
33593;SDS011;19920;52.242;20.940;2022-07-12T13:35:00;1.52;;;0.60;;
33593;SDS011;19920;52.242;20.940;2022-07-12T13:37:26;2.90;;;0.70;;
33593;SDS011;19920;52.242;20.940;2022-07-12T13:39:52;1.23;;;0.70;;
33593;SDS011;19920;52.242;20.940;2022-07-12T13:42:36;4.38;;;1.00;;
33593;SDS011;19920;52.242;20.940;2022-07-12T13:45:17;2.42;;;0.70;;
33593;SDS011;19920;52.242;20.940;2022-07-12T13:47:47;3.92;;;0.70;;
33593;SDS011;19920;52.242;20.940;2022-07-12T13:50:15;0.90;;;0.70;;
33593;SDS011;19920;52.242;20.940;2022-07-12T13:52:42;1.70;;;0.80;;
33593;SDS011;19920;52.242;20.940;2022-07-12T13:55:10;6.85;;;0.60;;
33593;SDS011;19920;52.242;20.940;2022-07-12T13:57:37;5.47;;;1.45;;
33593;SDS011;19920;52.242;20.940;2022-07-12T14:00:04;1.70;;;0.80;;
33593;SDS011;19920;52.242;20.940;2022-07-12T14:02:34;2.80;;;0.70;;
33593;SDS011;19920;52.242;20.940;2022-07-12T14:05:01;3.25;;;1.00;;
33593;SDS011;19920;52.242;20.940;2022-07-12T14:07:28;3.70;;;0.80;;
33593;SDS011;19920;52.242;20.940;2022-07-12T14:09:53;3.78;;;0.70;;
33593;SDS011;19920;52.242;20.940;2022-07-12T14:12:19;3.85;;;1.00;;
33593;SDS011;19920;52.242;20.940;2022-07-12T14:14:45;1.70;;;0.60;;
33593;SDS011;19920;52.242;20.940;2022-07-12T14:17:29;3.30;;;0.98;;
33593;SDS011;19920;52.242;20.940;2022-07-12T14:19:54;1.50;;;0.70;;
33593;SDS011;19920;52.242;20.940;2022-07-12T14:22:21;1.15;;;0.75;;
33593;SDS011;19920;52.242;20.940;2022-07-12T14:24:46;3.97;;;1.30;;
33593;SDS011;19920;52.242;20.940;2022-07-12T14:27:12;1.92;;;0.60;;
33593;SDS011;19920;52.242;20.940;2022-07-12T14:29:38;1.05;;;0.60;;
33593;SDS011;19920;52.242;20.940;2022-07-12T14:32:04;1.13;;;0.70;;
33593;SDS011;19920;52.242;20.940;2022-07-12T14:34:30;3.03;;;0.90;;
33593;SDS011;19920;52.242;20.940;2022-07-12T14:36:56;3.47;;;0.80;;
33593;SDS011;19920;52.242;20.940;2022-07-12T14:39:22;3.05;;;0.70;;
33593;SDS011;19920;52.242;20.940;2022-07-12T14:41:47;2.13;;;0.60;;
33593;SDS011;19920;52.242;20.940;2022-07-12T14:44:13;2.58;;;0.90;;
33593;SDS011;19920;52.242;20.940;2022-07-12T14:46:38;0.75;;;0.40;;
33593;SDS011;19920;52.242;20.940;2022-07-12T14:49:04;1.48;;;0.70;;
33593;SDS011;19920;52.242;20.940;2022-07-12T14:51:30;2.28;;;0.40;;
33593;SDS011;19920;52.242;20.940;2022-07-12T14:53:56;2.33;;;0.63;;
33593;SDS011;19920;52.242;20.940;2022-07-12T14:56:22;1.52;;;0.57;;
33593;SDS011;19920;52.242;20.940;2022-07-12T14:58:48;2.55;;;0.90;;
33593;SDS011;19920;52.242;20.940;2022-07-12T15:01:13;1.55;;;0.63;;
33593;SDS011;19920;52.242;20.940;2022-07-12T15:03:39;4.25;;;0.80;;
33593;SDS011;19920;52.242;20.940;2022-07-12T15:06:05;1.30;;;0.45;;
33593;SDS011;19920;52.242;20.940;2022-07-12T15:08:30;2.05;;;0.63;;
33593;SDS011;19920;52.242;20.940;2022-07-12T15:10:56;2.97;;;0.60;;
33593;SDS011;19920;52.242;20.940;2022-07-12T15:13:23;3.00;;;0.70;;
33593;SDS011;19920;52.242;20.940;2022-07-12T15:15:49;1.63;;;0.50;;
33593;SDS011;19920;52.242;20.940;2022-07-12T15:18:15;4.50;;;0.68;;
33593;SDS011;19920;52.242;20.940;2022-07-12T15:20:42;3.13;;;0.60;;